Stations météo

réclame
Mon MeteoGroup
Buzenol, Belgique (6484): Température de l'air & dewpoint: 10.06.2019 01:00:00 - 16.06.2019 01:00:00 (CEST)Buzenol, Belgique (6484): Vitesse du vent & gusts: 10.06.2019 01:00:00 - 16.06.2019 01:00:00 (CEST)Buzenol, Belgique (6484): Direction du vent: 10.06.2019 01:00:00 - 16.06.2019 01:00:00 (CEST)Buzenol, Belgique (6484): reduced air pressure: 10.06.2019 01:00:00 - 16.06.2019 01:00:00 (CEST)Buzenol, Belgique (6484): Ensoleillement: 10.06.2019 01:00:00 - 16.06.2019 01:00:00 (CEST)Buzenol, Belgique (6484): Quantités de précipitations: 10.06.2019 01:00:00 - 16.06.2019 01:00:00 (CEST)
Date & Time tt [°C] td [°C] ff [km/h] ff [knt] fx [km/h] fx [knt] dd ppp [hPa] sd [min] rr [mm]
16.06.2019 01:00:00 14,3 10,4 6 4 14 8 WNW 1019,7 0 0,0
16.06.2019 00:00:00 14,6 10,5 7 4 13 7 W 1019,0 0 0,0
15.06.2019 23:00:00 15,6 10,3 9 5 14 7 W 1018,0 0 0,0
15.06.2019 22:00:00 17,0 9,8 6 4 16 9 WNW 1017,3 0 0,0
15.06.2019 21:00:00 17,8 11,0 8 5 16 9 WNW 1016,8 0 0,0
15.06.2019 20:00:00 18,9 11,5 11 6 22 12 W 1016,5 28 0,0
15.06.2019 19:00:00 20,3 11,7 10 5 24 13 W 1016,2 58 0,0
15.06.2019 18:00:00 19,7 12,4 11 6 20 11 W 1016,3 34 0,0
15.06.2019 17:00:00 20,4 12,3 10 6 20 11 WNW 1016,3 27 0,0
15.06.2019 16:00:00 19,7 11,6 11 6 27 15 W 1016,5 14 0,0
15.06.2019 15:00:00 20,5 11,2 10 5 22 12 W 1016,0 26 0,0
15.06.2019 14:00:00 20,1 11,6 11 6 27 15 W 1016,3 52 0,0
15.06.2019 13:00:00 20,1 12,3 15 8 25 14 W 1015,8 55 0,0
15.06.2019 12:00:00 18,6 13,9 15 8 25 13 W 1015,6 39 0,0
15.06.2019 11:00:00 17,3 14,7 11 6 25 13 W 1015,1 38 0,0
15.06.2019 10:00:00 15,9 14,6 11 6 21 12 W 1014,9 5 0,0
15.06.2019 09:00:00 15,0 14,0 11 6 19 11 W 1014,2 0 0,0
15.06.2019 08:00:00 14,6 13,6 11 6 23 12 W 1013,5 0 0,0
15.06.2019 07:00:00 14,6 13,7 13 7 25 14 W 1013,0 0 0,2
15.06.2019 06:00:00 15,1 14,4 9 5 16 9 W 1012,3 0 0,6
15.06.2019 05:00:00 15,1 14,4 4 2 9 5 W 1011,7 0 4,4
15.06.2019 04:00:00 15,1 14,4 5 3 16 9 SSW 1012,1 0 5,0
15.06.2019 03:00:00 15,2 14,3 10 5 13 7 N 1010,9 0 3,3
15.06.2019 02:00:00 15,3 14,4 4 2 13 7 WSW 1011,7 0 0,9
15.06.2019 01:00:00 15,4 14,5 8 4 11 6 NNE 1010,9 0 0,4
15.06.2019 00:00:00 15,4 14,5 5 3 8 5 NNE 1012,8 0 0,1
14.06.2019 23:00:00 15,8 14,7 5 3 14 7 E 1013,4 0 1,6
14.06.2019 22:00:00 16,5 14,4 4 2 12 7 SSW 1012,7 0 0,3
14.06.2019 21:00:00 17,2 14,8 4 2 10 5 NE 1012,3 0 0,1
14.06.2019 20:00:00 19,0 13,5 7 4 12 7 S 1012,1 0 0,0
14.06.2019 19:00:00 20,1 13,7 8 4 22 12 S 1012,0 4 0,0
14.06.2019 18:00:00 21,7 12,9 14 8 29 15 S 1012,5 25 0,0
14.06.2019 17:00:00 23,1 12,1 13 7 27 14 SSW 1012,7 57 0,0
14.06.2019 16:00:00 22,8 11,7 13 7 26 14 SW 1013,2 53 0,0
14.06.2019 15:00:00 22,7 11,5 11 6 30 16 SW 1013,6 41 0,0
14.06.2019 14:00:00 22,8 11,1 16 9 - - SSW 1014,1 30 -
14.06.2019 13:00:00 21,7 10,5 9 5 20 11 SW 1014,7 60 0,0
14.06.2019 12:00:00 21,3 10,0 10 5 19 10 S 1015,2 60 0,0
14.06.2019 11:00:00 19,3 10,9 10 5 18 10 SE 1014,1 48 0,0
14.06.2019 10:00:00 16,7 11,5 5 3 18 10 ENE 1015,4 45 0,0
14.06.2019 09:00:00 14,7 10,8 6 4 11 6 W 1016,2 57 0,0
14.06.2019 08:00:00 13,5 12,6 4 2 7 4 S 1014,6 27 0,0
14.06.2019 07:00:00 10,1 9,6 4 2 9 5 NNE 1014,7 49 0,0
14.06.2019 06:00:00 8,6 8,1 4 2 7 4 ENE 1014,5 0 0,0
14.06.2019 05:00:00 8,4 7,7 4 2 7 4 NNE 1014,3 0 0,0
14.06.2019 04:00:00 9,6 8,8 6 3 9 5 NE 1013,8 0 0,0
14.06.2019 03:00:00 10,0 9,3 6 3 9 5 NE 1014,1 0 0,0
14.06.2019 02:00:00 10,6 9,9 7 4 9 5 NNE 1014,7 0 0,0
14.06.2019 01:00:00 10,6 9,9 6 4 11 6 NNE 1014,9 0 0,0
14.06.2019 00:00:00 11,0 10,2 6 3 8 4 NNE 1015,0 0 0,0
13.06.2019 23:00:00 12,3 11,3 4 2 6 3 NE 1014,6 0 0,0
13.06.2019 22:00:00 12,7 11,5 4 2 5 3 ENE 1014,5 0 0,1
13.06.2019 21:00:00 14,6 12,7 4 2 7 4 SE 1013,5 9 0,0
13.06.2019 20:00:00 15,5 10,8 7 4 13 7 SSW 1013,3 25 0,0
13.06.2019 19:00:00 15,3 11,2 6 3 16 9 SSW 1013,6 15 0,0
13.06.2019 18:00:00 14,7 11,2 9 5 37 20 W 1014,2 10 0,7
13.06.2019 17:00:00 15,5 10,9 18 10 41 22 WSW 1014,1 26 0,8
13.06.2019 16:00:00 19,0 8,1 25 13 48 26 WSW 1013,2 31 0,0
13.06.2019 15:00:00 18,7 7,7 22 12 - - W 1013,3 28 -
13.06.2019 14:00:00 17,6 8,0 23 12 - - WSW 1013,5 21 -
13.06.2019 13:00:00 17,2 8,4 23 12 36 20 WSW 1013,7 34 0,0
13.06.2019 12:00:00 16,5 8,1 25 13 41 22 WSW 1014,1 43 0,0
13.06.2019 11:00:00 15,2 9,2 20 11 43 23 WSW 1014,3 36 0,0
13.06.2019 10:00:00 13,7 9,6 18 10 30 16 SW 1014,4 40 0,0
13.06.2019 09:00:00 11,7 9,6 13 7 23 12 WSW 1014,8 19 0,0
13.06.2019 08:00:00 11,0 9,5 18 10 23 12 WSW 1014,5 55 0,0
13.06.2019 07:00:00 9,0 8,4 11 6 15 8 SW 1014,8 46 0,0
13.06.2019 06:00:00 7,8 7,1 8 4 12 6 WSW 1014,5 0 0,0
13.06.2019 05:00:00 7,6 6,9 6 3 8 5 SW 1014,4 0 0,0
13.06.2019 04:00:00 7,7 7,0 4 2 6 4 WSW 1013,9 0 0,0
13.06.2019 03:00:00 8,1 7,4 0 0 8 4 N 1013,9 0 0,0
13.06.2019 02:00:00 8,7 7,9 4 2 7 4 W 1013,5 0 0,0
13.06.2019 01:00:00 8,4 7,6 4 2 4 2 W 1013,8 0 0,0
13.06.2019 00:00:00 8,3 7,4 4 2 5 3 N 1013,2 0 0,0
12.06.2019 23:00:00 9,3 8,1 4 2 5 3 N 1012,7 0 0,0
12.06.2019 22:00:00 11,4 8,9 4 2 20 11 NNE 1012,3 0 0,0
12.06.2019 21:00:00 14,4 10,0 11 6 29 16 WNW 1011,5 16 0,0
12.06.2019 20:00:00 - - - - - - - - - -
12.06.2019 19:00:00 16,8 8,8 15 8 27 14 WSW 1010,6 34 0,0
12.06.2019 18:00:00 16,9 8,0 16 8 28 15 W 1010,7 18 0,0
12.06.2019 17:00:00 16,7 8,3 14 8 23 13 SW 1010,6 23 0,0
12.06.2019 16:00:00 16,9 8,7 11 6 26 14 WSW 1010,7 26 0,0
12.06.2019 15:00:00 16,2 9,4 17 9 27 15 W 1011,0 16 0,0
12.06.2019 14:00:00 15,0 9,1 18 10 - - W 1011,4 31 0,0
12.06.2019 13:00:00 14,2 10,1 14 8 29 15 W 1011,2 24 0,0
12.06.2019 12:00:00 12,6 10,3 11 6 25 13 W 1011,1 12 0,0
12.06.2019 11:00:00 11,4 9,9 14 8 29 16 W 1010,8 1 0,0
12.06.2019 10:00:00 11,4 10,6 20 11 32 17 WSW 1010,2 0 1,7
12.06.2019 09:00:00 11,7 11,0 13 7 19 11 WSW 1010,2 0 0,6
12.06.2019 08:00:00 11,4 10,8 4 2 11 6 SSW 1009,6 0 1,1
12.06.2019 07:00:00 11,2 10,6 6 3 9 5 W 1009,8 0 2,2
12.06.2019 06:00:00 11,0 10,4 6 4 11 6 SW 1009,9 0 0,2
12.06.2019 05:00:00 11,0 10,4 7 4 10 5 NNE 1009,3 0 0,1
12.06.2019 04:00:00 11,2 10,7 0 0 7 4 N 1010,9 0 0,0
12.06.2019 03:00:00 11,1 10,5 5 3 6 3 NE 1010,6 0 0,2
12.06.2019 02:00:00 11,5 10,8 0 0 1 1 N 1011,5 0 0,2
12.06.2019 01:00:00 11,5 10,7 4 2 5 3 N 1011,7 0 0,5
12.06.2019 00:00:00 11,8 11,0 0 0 10 5 N 1011,8 0 0,2
11.06.2019 23:00:00 11,8 10,9 7 4 10 5 NNE 1011,9 0 0,2
11.06.2019 22:00:00 12,0 11,0 6 3 8 5 NNE 1012,4 0 0,0
11.06.2019 21:00:00 12,4 11,2 5 3 8 4 NE 1012,3 0 0,1
11.06.2019 20:00:00 12,6 11,3 4 2 4 2 NNE 1012,8 0 0,5
11.06.2019 19:00:00 12,6 11,3 4 2 7 4 N 1012,6 0 0,1
11.06.2019 18:00:00 12,6 11,0 4 2 9 5 NNE 1012,8 0 0,1
11.06.2019 17:00:00 13,0 11,0 5 3 11 6 NW 1013,2 0 0,1
11.06.2019 16:00:00 14,0 10,9 5 3 9 5 NW 1013,0 0 0,2
11.06.2019 15:00:00 14,0 11,1 4 2 7 4 NNE 1013,0 0 0,3
11.06.2019 14:00:00 13,6 11,2 4 2 10 6 WNW 1013,1 0 1,0
11.06.2019 13:00:00 14,2 9,9 10 5 13 7 SW 1012,9 3 0,1
11.06.2019 12:00:00 15,3 10,4 5 3 11 6 SSW 1012,5 8 0,0
11.06.2019 11:00:00 14,1 9,7 5 3 9 5 W 1012,6 41 0,0
11.06.2019 10:00:00 13,0 10,6 4 2 9 5 E 1012,3 37 0,0
11.06.2019 09:00:00 11,4 10,2 4 2 7 4 SSE 1012,8 0 0,0
11.06.2019 08:00:00 10,5 10,0 4 2 6 4 S 1013,1 0 0,0
11.06.2019 07:00:00 9,9 9,3 5 3 7 4 N 1013,1 0 0,0
11.06.2019 06:00:00 9,5 8,9 0 0 3 2 N 1013,6 0 0,0
11.06.2019 05:00:00 9,9 9,4 4 2 7 4 WSW 1013,6 0 0,0
11.06.2019 04:00:00 9,8 9,1 5 3 9 5 NNE 1012,8 0 0,0
11.06.2019 03:00:00 10,8 10,0 5 3 14 7 W 1013,4 0 0,0
11.06.2019 02:00:00 11,4 10,6 7 4 16 8 WNW 1013,2 0 0,0
11.06.2019 01:00:00 11,8 11,0 6 3 14 7 W 1013,4 0 0,0
11.06.2019 00:00:00 12,0 11,2 6 3 11 6 W 1012,9 0 0,0
10.06.2019 23:00:00 12,4 11,5 5 3 11 6 W 1013,1 0 0,0
10.06.2019 22:00:00 12,7 11,6 9 5 20 11 W 1013,1 0 0,0
10.06.2019 21:00:00 13,3 12,0 4 2 10 6 WSW 1012,4 1 0,2
10.06.2019 20:00:00 13,3 12,1 4 2 11 6 W 1012,7 0 0,4
10.06.2019 19:00:00 13,5 12,0 7 4 22 12 W 1012,8 0 0,2
10.06.2019 18:00:00 14,6 13,0 9 5 24 13 WNW 1012,6 0 0,7
10.06.2019 17:00:00 14,9 12,4 15 8 40 22 WNW 1011,8 0 0,5
10.06.2019 16:00:00 19,7 13,1 10 5 18 10 WSW 1010,4 1 0,0
10.06.2019 15:00:00 19,1 12,5 9 5 21 11 W 1010,8 0 0,0
10.06.2019 14:00:00 20,0 13,2 11 6 23 13 W 1011,6 16 0,0
10.06.2019 13:00:00 19,1 12,5 7 4 20 11 WSW 1012,4 32 0,0
10.06.2019 12:00:00 18,5 12,9 10 5 20 11 SW 1013,1 57 0,0
10.06.2019 11:00:00 17,6 12,9 10 5 17 9 S 1013,4 45 0,0
10.06.2019 10:00:00 15,2 12,0 9 5 16 9 SW 1014,3 36 0,0
10.06.2019 09:00:00 14,1 11,8 5 3 12 6 SW 1014,6 9 0,0
10.06.2019 08:00:00 12,8 11,7 4 2 7 4 SSW 1015,0 0 0,0
10.06.2019 07:00:00 11,8 10,9 0 0 5 3 N 1015,2 0 0,0
10.06.2019 06:00:00 10,4 9,4 4 2 5 3 NE 1015,5 0 0,0
10.06.2019 05:00:00 9,7 8,7 4 2 8 5 NNE 1015,5 0 0,0
10.06.2019 04:00:00 10,3 9,2 4 2 7 4 NE 1015,7 0 0,0
10.06.2019 03:00:00 10,5 9,2 7 4 8 5 N 1015,7 0 0,0
10.06.2019 02:00:00 11,1 9,4 7 4 10 5 N 1016,5 0 0,0
10.06.2019 01:00:00 12,7 10,0 5 3 15 8 NNE 1016,9 0 0,0

tt = Température de l'air
td = dewpoint
ff = Vitesse du vent
fx = gusts
dd = Direction du vent
ppp = reduced air pressure
sd = Ensoleillement
rr = Quantités de précipitations

stations d'obs. à proximité